Wytheville, VA

6:54 PM EDT on August 30, 2015 (GMT -0400)
jimmys weather | | Change Station
CLOSE
Current Station
Personal Weather Station
Location: Wytheville, VA
Elevation: 2228 ft
Nearby Weather Stations

Elev 2228 ft 36.93 °N, 81.12 °W | Updated 12 minutes ago

Partly Cloudy
Partly Cloudy
79.0 °F
Feels Like 81 °F
N
2.7
Wind Variable Wind from SE

Today
High -- | Low -- °F
--% Chance of Precip.
Yesterday
High -- | Low -- °F
Precip. -- in
6:53 AM 7:56 PM
Full, 98% visible
Pressure 30.22 in
Visibility 10.0 miles
Clouds Scattered Clouds 10000 ft
Scattered Clouds 11000 ft
Heat Index 81 °F
Dew Point 64 °F
Humidity 61%
Rainfall 0.00 in
Snow Depth Not available.
UV 1 out of 12
Pollen 8.70 out of 12
Air Quality Not available.
Flu Activity Not available.
METAR KMKJ 302235Z AUTO 00000KT 10SM SCT100 SCT110 24/16 A3022 RMK AO2 T02410160
Pressure 30.22 in
Visibility 10.0 miles
Clouds Scattered Clouds 10000 ft
Scattered Clouds 11000 ft
Heat Index 81 °F
Dew Point 64 °F
Humidity 61%
Rainfall 0.00 in
Snow Depth Not available.
UV 1 out of 12
Pollen 8.70 out of 12
Air Quality Not available.
Flu Activity Not available.
METAR KMKJ 302235Z AUTO 00000KT 10SM SCT100 SCT110 24/16 A3022 RMK AO2 T02410160

10-Day Weather Forecast

×

Almanac

Astronomy

Aug. 30, 2015 Rise Set
Actual Time
Civil Twilight
Nautical Twilight
Astronomical Twilight
Moon
Length of Visible Light
Length of Day
Tomorrow will be .
, % of the Moon is Illuminated

Today's Extremes

State Highs State Lows

Community

WunderPhotos

Upload Photos

1,851,075 photos uploaded!

WunderBlogs® & News

Nearby

Air Quality

  Air Quality AQ Index Pollutant
Not available.

Snow Depth

Station Depth Elevation

Earthquake Activity

City Distance Mag. Time & Date
Minimum magnitude displayed is 2.5.

Coastal Water Temperatures

Place Temperature

Stations

Nearby Weather Stations

Station Location Temp. Windchill Dew Point Humidity Wind Precip. Elev Updated Type